Time,TemperatureF,DewpointF,PressureIn,WindDirection,WindDirectionDegrees,WindSpeedMPH,WindSpeedGustMPH,Humidity,HourlyPrecipIn,Conditions,Clouds,dailyrainin,SoftwareType,DateUTC
2013-01-26 00:02:00,51.0,49.0,30.19,SSW,201,0.0,-999.0,93,-99.99,,,-99.99,,2013-01-26 06:02:00,
2013-01-26 00:12:00,51.0,49.0,30.19,SSW,201,0.0,-999.0,93,-99.99,,,-99.99,,2013-01-26 06:12:00,
2013-01-26 00:21:00,51.0,49.0,30.19,SSW,201,0.0,-999.0,93,-99.99,,,-99.99,,2013-01-26 06:21:00,
2013-01-26 00:31:00,50.0,48.0,30.19,SSW,201,0.0,-999.0,93,-99.99,,,-99.99,,2013-01-26 06:31:00,
2013-01-26 00:41:00,50.0,48.0,30.19,SSW,201,0.0,-999.0,93,-99.99,,,-99.99,,2013-01-26 06:41:00,
2013-01-26 00:52:00,50.0,48.0,30.18,SSW,201,0.0,-999.0,93,-99.99,,,-99.99,,2013-01-26 06:52:00,
2013-01-26 01:01:00,50.0,48.0,30.18,SSW,201,0.0,-999.0,93,-99.99,,,-99.99,,2013-01-26 07:01:00,
2013-01-26 01:12:00,50.0,48.0,30.18,SSW,201,0.0,-999.0,93,-99.99,,,-99.99,,2013-01-26 07:12:00,
2013-01-26 01:21:00,50.0,48.0,30.18,SSW,201,0.0,-999.0,93,-99.99,,,-99.99,,2013-01-26 07:21:00,
2013-01-26 01:33:00,50.0,48.0,30.18,SSW,201,0.0,-999.0,93,-99.99,,,-99.99,,2013-01-26 07:33:00,
2013-01-26 01:41:00,50.0,48.0,30.18,SSW,201,0.0,-999.0,93,-99.99,,,-99.99,,2013-01-26 07:41:00,
2013-01-26 01:52:00,49.0,47.0,30.17,SSW,201,0.0,-999.0,93,-99.99,,,-99.99,,2013-01-26 07:52:00,
2013-01-26 02:02:00,49.0,47.0,30.17,SSW,201,0.0,-999.0,93,-99.99,,,-99.99,,2013-01-26 08:02:00,
2013-01-26 02:11:00,49.0,47.0,30.17,SSW,201,0.0,-999.0,93,-99.99,,,-99.99,,2013-01-26 08:11:00,
2013-01-26 02:21:00,49.0,47.0,30.17,SSW,201,0.0,-999.0,94,-99.99,,,-99.99,,2013-01-26 08:21:00,
2013-01-26 02:31:00,49.0,47.0,30.17,SSW,201,0.0,-999.0,94,-99.99,,,-99.99,,2013-01-26 08:31:00,
2013-01-26 02:42:00,49.0,47.0,30.17,SSW,201,0.0,-999.0,94,-99.99,,,-99.99,,2013-01-26 08:42:00,
2013-01-26 02:54:00,49.0,47.0,30.17,SSW,201,0.0,-999.0,93,-99.99,,,-99.99,,2013-01-26 08:54:00,
2013-01-26 03:02:00,49.0,47.0,30.17,SSW,201,0.0,-999.0,93,-99.99,,,-99.99,,2013-01-26 09:02:00,
2013-01-26 03:11:00,49.0,47.0,30.17,SSW,201,0.0,-999.0,93,-99.99,,,-99.99,,2013-01-26 09:11:00,
2013-01-26 03:22:00,49.0,47.0,30.17,SSW,201,0.0,-999.0,93,-99.99,,,-99.99,,2013-01-26 09:22:00,
2013-01-26 03:32:00,49.0,47.0,30.17,SSW,201,0.0,-999.0,94,-99.99,,,-99.99,,2013-01-26 09:32:00,
2013-01-26 03:42:00,49.0,47.0,30.17,SSW,201,0.0,-999.0,94,-99.99,,,-99.99,,2013-01-26 09:42:00,
2013-01-26 03:52:00,49.0,47.0,30.17,SSW,201,0.0,-999.0,93,-99.99,,,-99.99,,2013-01-26 09:52:00,
2013-01-26 04:01:00,49.0,47.0,30.17,SSW,201,0.0,-999.0,94,-99.99,,,-99.99,,2013-01-26 10:01:00,
2013-01-26 04:11:00,49.0,47.0,30.17,SSW,201,0.0,-999.0,94,-99.99,,,-99.99,,2013-01-26 10:11:00,
2013-01-26 04:21:00,49.0,47.0,30.17,SSW,201,0.0,-999.0,94,-99.99,,,-99.99,,2013-01-26 10:21:00,
2013-01-26 04:31:00,49.0,47.0,30.18,SSW,201,0.0,-999.0,94,-99.99,,,-99.99,,2013-01-26 10:31:00,
2013-01-26 04:42:00,49.0,47.0,30.18,SSW,201,0.0,-999.0,94,-99.99,,,-99.99,,2013-01-26 10:42:00,
2013-01-26 04:52:00,49.0,47.0,30.18,SSW,201,0.0,-999.0,94,-99.99,,,-99.99,,2013-01-26 10:52:00,
2013-01-26 05:01:00,49.0,47.0,30.18,SSW,201,0.0,-999.0,94,-99.99,,,-99.99,,2013-01-26 11:01:00,
2013-01-26 05:12:00,49.0,47.0,30.18,SSW,201,0.0,-999.0,94,-99.99,,,-99.99,,2013-01-26 11:12:00,
2013-01-26 05:22:00,48.0,46.0,30.19,SSW,201,0.0,-999.0,94,-99.99,,,-99.99,,2013-01-26 11:22:00,
2013-01-26 05:32:00,49.0,47.0,30.19,SSW,201,0.0,-999.0,94,-99.99,,,-99.99,,2013-01-26 11:32:00,
2013-01-26 05:42:00,49.0,47.0,30.19,SSW,201,0.0,-999.0,94,-99.99,,,-99.99,,2013-01-26 11:42:00,
2013-01-26 05:52:00,49.0,47.0,30.19,SSW,201,0.0,-999.0,94,-99.99,,,-99.99,,2013-01-26 11:52:00,
2013-01-26 06:02:00,48.0,46.0,30.20,SSW,201,0.0,-999.0,94,-99.99,,,-99.99,,2013-01-26 12:02:00,
2013-01-26 06:12:00,48.0,46.0,30.20,SSW,201,0.0,-999.0,94,-99.99,,,-99.99,,2013-01-26 12:12:00,
2013-01-26 06:22:00,49.0,47.0,30.20,SSW,201,0.0,-999.0,94,-99.99,,,-99.99,,2013-01-26 12:22:00,
2013-01-26 06:33:00,48.0,46.0,30.20,SSW,201,0.0,-999.0,94,-99.99,,,-99.99,,2013-01-26 12:33:00,
2013-01-26 06:42:00,48.0,46.0,30.20,SSW,201,0.0,-999.0,94,-99.99,,,-99.99,,2013-01-26 12:42:00,
2013-01-26 06:53:00,49.0,47.0,30.21,SSW,201,0.0,-999.0,94,-99.99,,,-99.99,,2013-01-26 12:53:00,
2013-01-26 07:03:00,48.0,46.0,30.21,SSW,201,0.0,-999.0,94,-99.99,,,-99.99,,2013-01-26 13:03:00,
2013-01-26 07:12:00,48.0,46.0,30.21,SSW,201,0.0,-999.0,94,-99.99,,,-99.99,,2013-01-26 13:12:00,
2013-01-26 07:22:00,49.0,47.0,30.22,SSW,201,0.0,-999.0,94,-99.99,,,-99.99,,2013-01-26 13:22:00,
2013-01-26 07:32:00,49.0,47.0,30.22,SSW,201,0.0,-999.0,94,-99.99,,,-99.99,,2013-01-26 13:32:00,
2013-01-26 07:42:00,49.0,47.0,30.22,SSW,201,0.0,-999.0,94,-99.99,,,-99.99,,2013-01-26 13:42:00,
2013-01-26 07:53:00,50.0,49.0,30.22,SSW,201,0.0,-999.0,95,-99.99,,,-99.99,,2013-01-26 13:53:00,
2013-01-26 08:02:00,52.0,50.0,30.22,SSW,201,0.0,-999.0,94,-99.99,,,-99.99,,2013-01-26 14:02:00,
2013-01-26 08:12:00,52.0,50.0,30.22,SSW,201,0.0,-999.0,94,-99.99,,,-99.99,,2013-01-26 14:12:00,
2013-01-26 08:22:00,53.0,52.0,30.22,SSW,201,0.0,-999.0,95,-99.99,,,-99.99,,2013-01-26 14:22:00,
2013-01-26 08:32:00,55.0,53.0,30.23,SSW,201,0.0,-999.0,94,-99.99,,,-99.99,,2013-01-26 14:32:00,
2013-01-26 08:43:00,55.0,53.0,30.23,SSW,201,0.0,-999.0,94,-99.99,,,-99.99,,2013-01-26 14:43:00,
2013-01-26 08:53:00,58.0,56.0,30.23,SSW,201,0.0,-999.0,94,-99.99,,,-99.99,,2013-01-26 14:53:00,
2013-01-26 09:03:00,60.0,58.0,30.23,SSW,201,0.0,-999.0,94,-99.99,,,-99.99,,2013-01-26 15:03:00,
2013-01-26 09:12:00,60.0,58.0,30.23,SSW,201,0.0,-999.0,94,-99.99,,,-99.99,,2013-01-26 15:12:00,
2013-01-26 09:22:00,63.0,60.0,30.24,NW,306,1.0,-999.0,91,-99.99,,,-99.99,,2013-01-26 15:22:00,
2013-01-26 09:32:00,65.0,61.0,30.24,NW,304,2.0,-999.0,87,-99.99,,,-99.99,,2013-01-26 15:32:00,
2013-01-26 09:43:00,65.0,61.0,30.24,NW,304,2.0,-999.0,87,-99.99,,,-99.99,,2013-01-26 15:43:00,
2013-01-26 09:53:00,67.0,61.0,30.24,SSW,211,3.0,-999.0,82,-99.99,,,-99.99,,2013-01-26 15:53:00,
2013-01-26 10:02:00,67.0,61.0,30.24,WSW,254,1.0,-999.0,82,-99.99,,,-99.99,,2013-01-26 16:02:00,
2013-01-26 10:12:00,67.0,61.0,30.24,WSW,254,1.0,-999.0,82,-99.99,,,-99.99,,2013-01-26 16:12:00,
2013-01-26 10:22:00,68.0,62.0,30.24,NW,306,1.0,-999.0,80,-99.99,,,-99.99,,2013-01-26 16:22:00,
2013-01-26 10:32:00,70.0,62.0,30.24,West,281,2.0,-999.0,76,-99.99,,,-99.99,,2013-01-26 16:32:00,
2013-01-26 10:42:00,70.0,62.0,30.24,West,281,2.0,-999.0,76,-99.99,,,-99.99,,2013-01-26 16:42:00,
2013-01-26 10:53:00,69.0,61.0,30.23,NNW,333,1.0,-999.0,76,-99.99,,,-99.99,,2013-01-26 16:53:00,
2013-01-26 11:03:00,71.0,62.0,30.23,SW,236,1.0,-999.0,73,-99.99,,,-99.99,,2013-01-26 17:03:00,
2013-01-26 11:12:00,71.0,62.0,30.23,SW,236,1.0,-999.0,73,-99.99,,,-99.99,,2013-01-26 17:12:00,
2013-01-26 11:22:00,76.0,64.0,30.22,East,82,0.0,-999.0,66,-99.99,,,-99.99,,2013-01-26 17:22:00,
2013-01-26 11:32:00,77.0,64.0,30.22,SW,227,1.0,-999.0,65,-99.99,,,-99.99,,2013-01-26 17:32:00,
2013-01-26 11:42:00,77.0,64.0,30.22,SW,227,1.0,-999.0,65,-99.99,,,-99.99,,2013-01-26 17:42:00,
2013-01-26 11:53:00,78.0,64.0,30.21,West,264,0.0,-999.0,62,-99.99,,,-99.99,,2013-01-26 17:53:00,
2013-01-26 12:02:00,75.0,64.0,30.21,East,80,1.0,-999.0,69,-99.99,,,-99.99,,2013-01-26 18:02:00,
2013-01-26 12:12:00,75.0,64.0,30.21,East,80,1.0,-999.0,69,-99.99,,,-99.99,,2013-01-26 18:12:00,
2013-01-26 12:22:00,75.0,65.0,30.20,ENE,66,1.0,-999.0,70,-99.99,,,-99.99,,2013-01-26 18:22:00,
2013-01-26 12:33:00,74.0,64.0,30.19,ESE,110,1.0,-999.0,72,-99.99,,,-99.99,,2013-01-26 18:33:00,
2013-01-26 12:42:00,74.0,64.0,30.19,ESE,110,1.0,-999.0,72,-99.99,,,-99.99,,2013-01-26 18:42:00,
2013-01-26 12:53:00,73.0,63.0,30.19,SE,128,1.0,-999.0,71,-99.99,,,-99.99,,2013-01-26 18:53:00,
2013-01-26 13:03:00,71.0,63.0,30.19,ENE,74,1.0,-999.0,76,-99.99,,,-99.99,,2013-01-26 19:03:00,
2013-01-26 13:12:00,71.0,63.0,30.19,ENE,74,1.0,-999.0,76,-99.99,,,-99.99,,2013-01-26 19:12:00,
2013-01-26 13:22:00,71.0,63.0,30.19,East,98,1.0,-999.0,76,-99.99,,,-99.99,,2013-01-26 19:22:00,
2013-01-26 13:32:00,70.0,63.0,30.18,ENE,57,1.0,-999.0,79,-99.99,,,-99.99,,2013-01-26 19:32:00,
2013-01-26 13:42:00,70.0,63.0,30.18,ENE,57,1.0,-999.0,79,-99.99,,,-99.99,,2013-01-26 19:42:00,
2013-01-26 13:53:00,69.0,63.0,30.18,ENE,66,1.0,-999.0,81,-99.99,,,-99.99,,2013-01-26 19:53:00,
2013-01-26 14:02:00,69.0,63.0,30.17,NNE,30,0.0,-999.0,82,-99.99,,,-99.99,,2013-01-26 20:02:00,
2013-01-26 14:11:00,69.0,63.0,30.17,NNE,30,0.0,-999.0,82,-99.99,,,-99.99,,2013-01-26 20:11:00,
2013-01-26 14:21:00,70.0,64.0,30.17,SE,134,0.0,-999.0,81,-99.99,,,-99.99,,2013-01-26 20:21:00,
2013-01-26 14:32:00,70.0,64.0,30.17,ESE,116,0.0,-999.0,81,-99.99,,,-99.99,,2013-01-26 20:32:00,
2013-01-26 14:42:00,70.0,64.0,30.17,ESE,116,0.0,-999.0,81,-99.99,,,-99.99,,2013-01-26 20:42:00,
2013-01-26 14:52:00,70.0,64.0,30.17,ESE,116,0.0,-999.0,81,-99.99,,,-99.99,,2013-01-26 20:52:00,
2013-01-26 15:02:00,70.0,64.0,30.18,ESE,115,0.0,-999.0,82,-99.99,,,-99.99,,2013-01-26 21:02:00,
2013-01-26 15:12:00,70.0,64.0,30.18,ESE,115,0.0,-999.0,82,-99.99,,,-99.99,,2013-01-26 21:12:00,
2013-01-26 15:22:00,69.0,63.0,30.18,East,101,0.0,-999.0,82,-99.99,,,-99.99,,2013-01-26 21:22:00,
2013-01-26 15:32:00,69.0,64.0,30.18,NE,55,0.0,-999.0,83,-99.99,,,-99.99,,2013-01-26 21:32:00,
2013-01-26 15:42:00,69.0,64.0,30.18,NE,55,0.0,-999.0,83,-99.99,,,-99.99,,2013-01-26 21:42:00,
2013-01-26 15:52:00,69.0,64.0,30.18,NE,47,0.0,-999.0,83,-99.99,,,-99.99,,2013-01-26 21:52:00,
2013-01-26 16:01:00,68.0,63.0,30.18,NE,46,0.0,-999.0,84,-99.99,,,-99.99,,2013-01-26 22:01:00,
2013-01-26 16:11:00,68.0,63.0,30.18,NE,46,0.0,-999.0,84,-99.99,,,-99.99,,2013-01-26 22:11:00,
2013-01-26 16:21:00,68.0,63.0,30.18,NE,46,0.0,-999.0,84,-99.99,,,-99.99,,2013-01-26 22:21:00,
2013-01-26 16:32:00,67.0,62.0,30.18,NE,47,0.0,-999.0,85,-99.99,,,-99.99,,2013-01-26 22:32:00,
2013-01-26 16:42:00,67.0,62.0,30.18,NE,47,0.0,-999.0,85,-99.99,,,-99.99,,2013-01-26 22:42:00,
2013-01-26 16:52:00,67.0,63.0,30.18,NE,46,0.0,-999.0,86,-99.99,,,-99.99,,2013-01-26 22:52:00,
2013-01-26 17:01:00,67.0,63.0,30.18,NE,46,0.0,-999.0,87,-99.99,,,-99.99,,2013-01-26 23:01:00,
2013-01-26 17:11:00,67.0,63.0,30.18,NE,46,0.0,-999.0,87,-99.99,,,-99.99,,2013-01-26 23:11:00,
2013-01-26 17:22:00,66.0,62.0,30.19,NE,47,0.0,-999.0,88,-99.99,,,-99.99,,2013-01-26 23:22:00,
2013-01-26 17:32:00,65.0,62.0,30.19,NE,47,0.0,-999.0,89,-99.99,,,-99.99,,2013-01-26 23:32:00,
2013-01-26 17:42:00,65.0,62.0,30.19,NE,47,0.0,-999.0,89,-99.99,,,-99.99,,2013-01-26 23:42:00,
2013-01-26 17:52:00,65.0,62.0,30.19,NE,47,0.0,-999.0,90,-99.99,,,-99.99,,2013-01-26 23:52:00,
2013-01-26 18:02:00,65.0,62.0,30.19,NE,46,0.0,-999.0,90,-99.99,,,-99.99,,2013-01-27 00:02:00,
2013-01-26 18:11:00,65.0,62.0,30.19,NE,46,0.0,-999.0,90,-99.99,,,-99.99,,2013-01-27 00:11:00,
2013-01-26 18:21:00,64.0,61.0,30.19,NE,47,0.0,-999.0,90,-99.99,,,-99.99,,2013-01-27 00:21:00,
2013-01-26 18:32:00,64.0,61.0,30.20,NE,46,0.0,-999.0,91,-99.99,,,-99.99,,2013-01-27 00:32:00,
2013-01-26 18:42:00,64.0,61.0,30.20,NE,46,0.0,-999.0,91,-99.99,,,-99.99,,2013-01-27 00:42:00,
2013-01-26 18:52:00,64.0,61.0,30.20,NE,46,0.0,-999.0,91,-99.99,,,-99.99,,2013-01-27 00:52:00,
2013-01-26 19:01:00,63.0,60.0,30.20,NE,47,0.0,-999.0,91,-99.99,,,-99.99,,2013-01-27 01:01:00,
2013-01-26 19:11:00,63.0,60.0,30.20,NE,47,0.0,-999.0,91,-99.99,,,-99.99,,2013-01-27 01:11:00,
2013-01-26 19:22:00,63.0,60.0,30.20,NE,46,0.0,-999.0,91,-99.99,,,-99.99,,2013-01-27 01:22:00,
2013-01-26 19:32:00,62.0,60.0,30.20,NE,47,0.0,-999.0,92,-99.99,,,-99.99,,2013-01-27 01:32:00,
2013-01-26 19:41:00,62.0,60.0,30.20,NE,47,0.0,-999.0,92,-99.99,,,-99.99,,2013-01-27 01:41:00,
2013-01-26 19:51:00,61.0,59.0,30.20,NE,44,0.0,-999.0,92,-99.99,,,-99.99,,2013-01-27 01:51:00,
2013-01-26 20:01:00,61.0,59.0,30.20,NE,44,0.0,-999.0,92,-99.99,,,-99.99,,2013-01-27 02:01:00,
2013-01-26 20:11:00,61.0,59.0,30.20,NE,44,0.0,-999.0,92,-99.99,,,-99.99,,2013-01-27 02:11:00,
2013-01-26 20:22:00,60.0,58.0,30.21,NE,45,0.0,-999.0,93,-99.99,,,-99.99,,2013-01-27 02:22:00,
2013-01-26 20:31:00,60.0,58.0,30.21,West,268,0.0,-999.0,92,-99.99,,,-99.99,,2013-01-27 02:31:00,
2013-01-26 20:42:00,60.0,58.0,30.21,West,268,0.0,-999.0,92,-99.99,,,-99.99,,2013-01-27 02:42:00,
2013-01-26 20:52:00,60.0,58.0,30.22,West,269,0.0,-999.0,92,-99.99,,,-99.99,,2013-01-27 02:52:00,
2013-01-26 21:02:00,59.0,57.0,30.22,West,270,0.0,-999.0,92,-99.99,,,-99.99,,2013-01-27 03:02:00,
2013-01-26 21:11:00,59.0,57.0,30.22,West,270,0.0,-999.0,92,-99.99,,,-99.99,,2013-01-27 03:11:00,
2013-01-26 21:21:00,59.0,57.0,30.22,West,276,0.0,-999.0,93,-99.99,,,-99.99,,2013-01-27 03:21:00,
2013-01-26 21:31:00,58.0,56.0,30.23,West,276,0.0,-999.0,93,-99.99,,,-99.99,,2013-01-27 03:31:00,
2013-01-26 21:42:00,58.0,56.0,30.23,West,276,0.0,-999.0,93,-99.99,,,-99.99,,2013-01-27 03:42:00,
2013-01-26 21:52:00,58.0,56.0,30.23,West,276,0.0,-999.0,93,-99.99,,,-99.99,,2013-01-27 03:52:00,
2013-01-26 22:01:00,57.0,55.0,30.23,West,277,0.0,-999.0,93,-99.99,,,-99.99,,2013-01-27 04:01:00,
2013-01-26 22:11:00,57.0,55.0,30.23,West,277,0.0,-999.0,93,-99.99,,,-99.99,,2013-01-27 04:11:00,
2013-01-26 22:21:00,56.0,54.0,30.24,West,277,0.0,-999.0,93,-99.99,,,-99.99,,2013-01-27 04:21:00,
2013-01-26 22:32:00,55.0,53.0,30.24,West,277,0.0,-999.0,93,-99.99,,,-99.99,,2013-01-27 04:32:00,
2013-01-26 22:42:00,55.0,53.0,30.24,West,277,0.0,-999.0,93,-99.99,,,-99.99,,2013-01-27 04:42:00,
2013-01-26 22:52:00,55.0,53.0,30.24,West,277,0.0,-999.0,93,-99.99,,,-99.99,,2013-01-27 04:52:00,
2013-01-26 23:03:00,54.0,52.0,30.24,West,277,0.0,-999.0,93,-99.99,,,-99.99,,2013-01-27 05:03:00,
2013-01-26 23:12:00,54.0,52.0,30.24,West,277,0.0,-999.0,93,-99.99,,,-99.99,,2013-01-27 05:12:00,
2013-01-26 23:22:00,54.0,52.0,30.24,West,277,0.0,-999.0,93,-99.99,,,-99.99,,2013-01-27 05:22:00,
2013-01-26 23:32:00,53.0,51.0,30.24,West,277,0.0,-999.0,93,-99.99,,,-99.99,,2013-01-27 05:32:00,
2013-01-26 23:41:00,53.0,51.0,30.24,West,277,0.0,-999.0,93,-99.99,,,-99.99,,2013-01-27 05:41:00,
2013-01-26 23:52:00,53.0,51.0,30.24,West,275,0.0,-999.0,93,-99.99,,,-99.99,,2013-01-27 05:52:00,